• Join FlightAware (Why Join?)
  • Login
  • US Flag 
10:35PM EDT


 

Airport Tracker/Info


-or-


 

Live Flight TrackerFlight Track Log ✈ EGF4603 ✈ 06-Apr-2013 ✈ KCLT - KLGA

Flight Track Log - Related Links

Times and Time Zones

All times are in EDT time to prevent confusion due to time zone crossing. See the EGF4603 flight status page for this flight to view local times or setup timezone preferences in your user account.

Time Position Orientation Groundspeed Altitude Reporting Facility
EDT Latitude Longitude Course Direction KTS MPH feet Rate Location/Type
04:54PM 35.1928 -80.9356 90° East 155 178 1,900  Level Atlanta Center
04:55PM 35.1575 -80.9344 179° South 184 212 3,400 2,640 Climbing Atlanta Center
04:56PM 35.0990 -80.7400 80° East  Level FlightAware Approximate
04:56PM 35.1039 -80.8781 139° Southeast 249 287 6,700  Level Atlanta Center
04:57PM 35.1240 -80.6173 29° Northeast  Level FlightAware Approximate
04:57PM 35.0958 -80.8097 98° East 277 319 9,000  Level Atlanta Center
04:57PM 35.1194 -80.7556 62° Northeast 294 338 10,700 2,160 Climbing Atlanta Center
04:58PM 35.2243 -80.5493 30° Northeast  Level FlightAware Approximate
04:58PM 35.1372 -80.7217 57° Northeast 317 365 11,200  Level Atlanta Center
04:58PM 35.1728 -80.6492 59° Northeast 355 409 12,600 2,040 Climbing Atlanta Center
04:59PM 35.3167 -80.4739 90° East  Level FlightAware Approximate
04:59PM 35.2283 -80.5453 57° Northeast 370 426 14,800  Level Atlanta Center
05:02PM 35.3561 -80.2983 58° Northeast 385 443 19,000 1,920 Climbing Washington Center
05:03PM 35.4172 -80.1769 58° Northeast 408 470 21,000 1,680 Climbing Washington Center
05:04PM 35.4600 -80.0394 69° East 420 483 22,400 1,440 Climbing Washington Center
05:05PM 35.4986 -79.8908 72° East 437 503 23,900 1,500 Climbing Washington Center
05:06PM 35.5353 -79.7397 73° East 447 514 25,400 1,620 Climbing Washington Center
05:07PM 35.5831 -79.5686 71° East 467 537 27,200 1,560 Climbing Washington Center
05:08PM 35.6233 -79.4147 72° East 474 545 28,600 1,320 Climbing Washington Center
05:09PM 35.6694 -79.2814 67° East 469 540 29,900 1,200 Climbing Washington Center
05:10PM 35.6658 -79.1203 92° East 460 529 31,000 540 Climbing Washington Center
05:11PM 35.6603 -78.9486 92° East 472 543 31,000 420 Level Washington Center
05:12PM 35.7169 -78.7925 66° East 487 560 31,900 900 Climbing Washington Center
05:13PM 35.8281 -78.6919 36° Northeast 456 525 32,900 540 Climbing Washington Center
05:14PM 35.9331 -78.5856 39° Northeast 465 535 33,000  Climbing Washington Center
05:15PM 36.0400 -78.4767 39° Northeast 476 548 33,000  Level Washington Center
05:16PM 36.1425 -78.3725 39° Northeast 481 554 33,000  Level Washington Center
05:17PM 36.2472 -78.2653 40° Northeast 481 554 33,000  Level Washington Center
05:18PM 36.3497 -78.1581 40° Northeast 486 559 33,000  Level Washington Center
05:19PM 36.4500 -78.0503 41° Northeast 486 559 33,000  Level Washington Center
05:20PM 36.5544 -77.9397 40° Northeast 486 559 33,000  Level Washington Center
05:21PM 36.6611 -77.8264 40° Northeast 493 567 33,000  Level Washington Center
05:22PM 36.7653 -77.7181 40° Northeast 493 567 33,000  Level Washington Center
05:23PM 36.8733 -77.6169 37° Northeast 488 562 33,000  Level Washington Center
05:24PM 36.9833 -77.5236 34° Northeast 482 555 33,000  Level Washington Center
05:25PM 37.0933 -77.4328 33° Northeast 477 549 33,000  Level Washington Center
05:26PM 37.2011 -77.3414 34° Northeast 471 542 33,000  Level Washington Center
05:27PM 37.3150 -77.2447 34° Northeast 471 542 33,000  Level Washington Center
05:28PM 37.4375 -77.1378 35° Northeast 482 555 33,000  Level Washington Center
05:29PM 37.5428 -77.0533 32° Northeast 487 560 33,000  Level Washington Center
05:30PM 37.6503 -76.9583 35° Northeast 481 554 33,000  Level Washington Center
05:31PM 37.7578 -76.8631 35° Northeast 476 548 33,000  Level Washington Center
05:32PM 37.8672 -76.7675 35° Northeast 471 542 33,000  Level Washington Center
05:33PM 37.9764 -76.6719 35° Northeast 471 542 33,000  Level Washington Center
05:34PM 38.0878 -76.5758 34° Northeast 476 548 33,000  Level Washington Center
05:35PM 38.1950 -76.4794 35° Northeast 476 548 33,000  Level Washington Center
05:36PM 38.3186 -76.3725 34° Northeast 476 548 33,000  Level Washington Center
05:37PM 38.4278 -76.2728 36° Northeast 476 548 33,000  Level Washington Center
05:38PM 38.5389 -76.1703 36° Northeast 476 548 33,000 -540 Level Washington Center
05:39PM 38.6308 -76.0858 36° Northeast 471 542 32,000 -1,440 Descending Washington Center
05:40PM 38.7397 -75.9856 36° Northeast 471 542 30,200 -1,800 Descending Washington Center
05:41PM 38.8461 -75.8822 37° Northeast 471 542 28,400 -1,620 Descending Washington Center
05:42PM 38.9506 -75.7839 36° Northeast 471 542 27,000 -720 Descending Washington Center
05:43PM 39.0550 -75.6878 36° Northeast 471 542 27,000  Level Washington Center
05:44PM 39.1592 -75.5864 37° Northeast 471 542 27,000 -600 Level Washington Center
05:45PM 39.2656 -75.4897 35° Northeast 465 535 25,800 -1,380 Descending Washington Center
05:46PM 39.3675 -75.3983 35° Northeast 460 529 24,300 -1,560 Descending Washington Center
05:47PM 39.4653 -75.3119 34° Northeast 441 507 22,800 -1,500 Descending Washington Center
05:48PM 39.5608 -75.2228 36° Northeast 431 496 21,300 -1,680 Descending Washington Center
05:49PM 39.6606 -75.1306 35° Northeast 405 466 19,500 -1,740 Descending Washington Center
05:50PM 39.7436 -75.0572 34° Northeast 399 459 17,900 -1,560 Descending Washington Center
05:51PM 39.8411 -74.9753 33° Northeast 389 448 16,400 -1,680 Descending Washington Center
05:52PM 39.9178 -74.8989 37° Northeast 389 448 14,600 -1,860 Descending Washington Center
05:53PM 39.9964 -74.7953 45° Northeast 375 432 12,700 -2,040 Descending Washington Center
05:54PM 40.0833 -74.6833 45° Northeast 353 406 10,300 -1,260 Descending New York TRACON
05:55PM 40.1500 -74.5833 49° Northeast 357 411 10,000 -180 Descending New York TRACON
05:56PM 40.2167 -74.4833 49° Northeast 354 407 10,000  Level New York TRACON
05:57PM 40.2833 -74.4000 44° Northeast 354 407 10,000 -180 Level New York TRACON
05:58PM 40.3500 -74.3167 44° Northeast 334 384 9,700 -540 Descending New York TRACON
05:59PM 40.4000 -74.2500 45° Northeast 290 334 9,000 -1,140 Descending New York TRACON
06:00PM 40.4500 -74.1833 45° Northeast 276 318 7,600 -1,500 Descending New York TRACON
06:01PM 40.5167 -74.1167 37° Northeast 259 298 5,900 -1,500 Descending New York TRACON
06:02PM 40.5833 -74.0667 30° Northeast 261 300 4,500 -960 Descending New York TRACON
06:03PM 40.6500 -74.0500 11° North 259 298 4,000 -300 Descending New York TRACON
06:04PM 40.7167 -74.0333 11° North 250 288 4,000  Level New York TRACON
06:05PM 40.7833 -74.0000 21° North 264 304 4,000  Level New York TRACON
06:06PM 40.8500 -73.9500 30° Northeast 269 310 4,000  Level New York TRACON